^^
Station Historical Data
Daily Summary for February 18, 2018 Units:  Both    English   Metric
« Previous Day
Next Day »
Daily Weekly Monthly Yearly Custom
  High: Low: Average:
Temperature: TemperatureF °F /  -17.8 °C 54.7 °F /  12.6 °C 72.3 °F /  22.4 °C
Dew Point: DewpointF °F /  -17.8 °C 25.0 °F /  -3.9 °C 33.8 °F /  1 °C
Humidity: Humidity% 13% 28%
Wind Speed: WindSpeedMPHmph /  0km/h - 1.5mph /  2.4km/h
Wind Gust: WindSpeedGustMPHmph /  0km/h - -
Wind- - WSW
Pressure: PressureIn in /  0 hPa 29.63 in /  1003.3 hPa -
Precipitation: 0.00 in /  0 mm    
Historical Graphs
 
 
Tabular Data for February 18, 2018
Time Temperature Dew Point Pressure Wind Wind Speed Wind Gust Humidity Rainfall Rate (Hourly) solar Conditions
TemperatureF °F /  -17.8 °C DewpointF °F /  -17.8 °C PressureInin /  0hPa Calm     Humidity% HourlyPrecipInin /  0mm SolarRadiationWatts/m^2 W/m2 Conditions
00:03 66.0 °F /  18.9 °C 38.3 °F /  3.5 °C 29.74in /  1007hPa Calm     36% 0.00in /  0mm 0.0 W/m2
00:08 65.7 °F /  18.7 °C 37.9 °F /  3.3 °C 29.74in /  1007hPa ENE 0.9mph /  1.4km/h 1.0mph /  1.6km/h 36% 0.00in /  0mm 0.0 W/m2
00:13 65.5 °F /  18.6 °C 37.8 °F /  3.2 °C 29.75in /  1007.3hPa Calm     36% 0.00in /  0mm 0.0 W/m2
00:19 65.1 °F /  18.4 °C 38.1 °F /  3.4 °C 29.74in /  1007hPa Calm   1.0mph /  1.6km/h 37% 0.00in /  0mm 0.0 W/m2
00:24 65.1 °F /  18.4 °C 38.8 °F /  3.8 °C 29.74in /  1007hPa Calm     38% 0.00in /  0mm 0.0 W/m2
00:29 64.8 °F /  18.2 °C 38.5 °F /  3.6 °C 29.74in /  1007hPa Calm   1.0mph /  1.6km/h 38% 0.00in /  0mm 0.0 W/m2
00:34 64.6 °F /  18.1 °C 40.3 °F /  4.6 °C 29.74in /  1007hPa Calm     41% 0.00in /  0mm 0.0 W/m2
00:39 64.2 °F /  17.9 °C 40.1 °F /  4.5 °C 29.74in /  1007hPa Calm     41% 0.00in /  0mm 0.0 W/m2
00:44 64.0 °F /  17.8 °C 40.5 °F /  4.7 °C 29.74in /  1007hPa Calm     42% 0.00in /  0mm 0.0 W/m2
00:49 63.7 °F /  17.6 °C 39.6 °F /  4.2 °C 29.74in /  1007hPa Calm   1.0mph /  1.6km/h 41% 0.00in /  0mm 0.0 W/m2
00:54 63.3 °F /  17.4 °C 39.2 °F /  4 °C 29.74in /  1007hPa East 2.0mph /  3.2km/h 4.0mph /  6.4km/h 41% 0.00in /  0mm 0.0 W/m2
01:00 63.1 °F /  17.3 °C 39.0 °F /  3.9 °C 29.74in /  1007hPa Calm   2.0mph /  3.2km/h 41% 0.00in /  0mm 0.0 W/m2
01:05 63.0 °F /  17.2 °C 38.8 °F /  3.8 °C 29.74in /  1007hPa Calm     41% 0.00in /  0mm 0.0 W/m2
01:10 62.8 °F /  17.1 °C 39.4 °F /  4.1 °C 29.74in /  1007hPa Calm     42% 0.00in /  0mm 0.0 W/m2
01:15 62.6 °F /  17 °C 39.7 °F /  4.3 °C 29.74in /  1007hPa Calm   1.0mph /  1.6km/h 43% 0.00in /  0mm 0.0 W/m2
01:20 62.4 °F /  16.9 °C 40.3 °F /  4.6 °C 29.74in /  1007hPa Calm   1.0mph /  1.6km/h 44% 0.00in /  0mm 0.0 W/m2
01:25 62.2 °F /  16.8 °C 40.1 °F /  4.5 °C 29.74in /  1007hPa Calm   1.0mph /  1.6km/h 44% 0.00in /  0mm 0.0 W/m2
01:30 62.1 °F /  16.7 °C 40.5 °F /  4.7 °C 29.74in /  1007hPa Calm   1.0mph /  1.6km/h 45% 0.00in /  0mm 0.0 W/m2
01:35 61.9 °F /  16.6 °C 39.7 °F /  4.3 °C 29.73in /  1006.7hPa Calm     44% 0.00in /  0mm 0.0 W/m2
01:40 61.5 °F /  16.4 °C 39.9 °F /  4.4 °C 29.73in /  1006.7hPa Calm   1.0mph /  1.6km/h 45% 0.00in /  0mm 0.0 W/m2
01:45 61.3 °F /  16.3 °C 39.7 °F /  4.3 °C 29.73in /  1006.7hPa Calm     45% 0.00in /  0mm 0.0 W/m2
01:51 61.2 °F /  16.2 °C 39.7 °F /  4.3 °C 29.73in /  1006.7hPa Calm     45% 0.00in /  0mm 0.0 W/m2
01:56 61.0 °F /  16.1 °C 40.1 °F /  4.5 °C 29.72in /  1006.3hPa Calm   1.0mph /  1.6km/h 46% 0.00in /  0mm 0.0 W/m2
02:01 60.8 °F /  16 °C 39.9 °F /  4.4 °C 29.72in /  1006.3hPa SE 0.9mph /  1.4km/h 2.0mph /  3.2km/h 46% 0.00in /  0mm 0.0 W/m2
02:06 60.6 °F /  15.9 °C 39.2 °F /  4 °C 29.72in /  1006.3hPa Calm   1.0mph /  1.6km/h 45% 0.00in /  0mm 0.0 W/m2
02:11 60.4 °F /  15.8 °C 39.0 °F /  3.9 °C 29.72in /  1006.3hPa Calm   1.0mph /  1.6km/h 45% 0.00in /  0mm 0.0 W/m2
02:16 60.3 °F /  15.7 °C 38.8 °F /  3.8 °C 29.72in /  1006.3hPa Calm   2.0mph /  3.2km/h 45% 0.00in /  0mm 0.0 W/m2
02:21 60.3 °F /  15.7 °C 38.3 °F /  3.5 °C 29.71in /  1006hPa Calm   1.0mph /  1.6km/h 44% 0.00in /  0mm 0.0 W/m2
02:26 60.3 °F /  15.7 °C 38.8 °F /  3.8 °C 29.71in /  1006hPa Calm   1.0mph /  1.6km/h 45% 0.00in /  0mm 0.0 W/m2
02:31 60.3 °F /  15.7 °C 38.8 °F /  3.8 °C 29.71in /  1006hPa Calm     45% 0.00in /  0mm 0.0 W/m2
02:36 60.1 °F /  15.6 °C 39.2 °F /  4 °C 29.71in /  1006hPa Calm     46% 0.00in /  0mm 0.0 W/m2
02:41 59.9 °F /  15.5 °C 38.5 °F /  3.6 °C 29.71in /  1006hPa SE 0.9mph /  1.4km/h 2.0mph /  3.2km/h 45% 0.00in /  0mm 0.0 W/m2
02:47 59.7 °F /  15.4 °C 37.8 °F /  3.2 °C 29.70in /  1005.6hPa Calm   1.0mph /  1.6km/h 44% 0.00in /  0mm 0.0 W/m2
02:52 59.5 °F /  15.3 °C 38.7 °F /  3.7 °C 29.70in /  1005.6hPa Calm     46% 0.00in /  0mm 0.0 W/m2
02:57 59.4 °F /  15.2 °C 37.4 °F /  3 °C 29.70in /  1005.6hPa Calm   3.0mph /  4.8km/h 44% 0.00in /  0mm 0.0 W/m2
03:02 59.4 °F /  15.2 °C 37.9 °F /  3.3 °C 29.70in /  1005.6hPa SE 0.9mph /  1.4km/h 2.0mph /  3.2km/h 45% 0.00in /  0mm 0.0 W/m2
03:07 59.2 °F /  15.1 °C 37.9 °F /  3.3 °C 29.70in /  1005.6hPa Calm   2.0mph /  3.2km/h 45% 0.00in /  0mm 0.0 W/m2
03:12 59.2 °F /  15.1 °C 37.9 °F /  3.3 °C 29.70in /  1005.6hPa SE 0.9mph /  1.4km/h 2.0mph /  3.2km/h 45% 0.00in /  0mm 0.0 W/m2
03:17 59.2 °F /  15.1 °C 37.9 °F /  3.3 °C 29.70in /  1005.6hPa Calm     45% 0.00in /  0mm 0.0 W/m2
03:23 59.2 °F /  15.1 °C 37.2 °F /  2.9 °C 29.70in /  1005.6hPa Calm   1.0mph /  1.6km/h 44% 0.00in /  0mm 0.0 W/m2
03:28 59.0 °F /  15 °C 38.3 °F /  3.5 °C 29.69in /  1005.3hPa Calm     46% 0.00in /  0mm 0.0 W/m2
03:33 58.8 °F /  14.9 °C 39.2 °F /  4 °C 29.70in /  1005.6hPa Calm     48% 0.00in /  0mm 0.0 W/m2
03:38 58.6 °F /  14.8 °C 39.0 °F /  3.9 °C 29.69in /  1005.3hPa ESE 0.9mph /  1.4km/h 1.0mph /  1.6km/h 48% 0.00in /  0mm 0.0 W/m2
03:44 58.3 °F /  14.6 °C 38.1 °F /  3.4 °C 29.69in /  1005.3hPa Calm   1.0mph /  1.6km/h 47% 0.00in /  0mm 0.0 W/m2
03:49 58.1 °F /  14.5 °C 37.4 °F /  3 °C 29.69in /  1005.3hPa ESE 0.9mph /  1.4km/h 2.0mph /  3.2km/h 46% 0.00in /  0mm 0.0 W/m2
03:54 57.9 °F /  14.4 °C 36.1 °F /  2.3 °C 29.69in /  1005.3hPa Calm   1.0mph /  1.6km/h 44% 0.00in /  0mm 0.0 W/m2
03:59 57.9 °F /  14.4 °C 36.1 °F /  2.3 °C 29.69in /  1005.3hPa Calm   1.0mph /  1.6km/h 44% 0.00in /  0mm 0.0 W/m2
04:04 57.9 °F /  14.4 °C 35.6 °F /  2 °C 29.69in /  1005.3hPa Calm   3.0mph /  4.8km/h 43% 0.00in /  0mm 0.0 W/m2
04:09 57.7 °F /  14.3 °C 36.0 °F /  2.2 °C 29.69in /  1005.3hPa Calm   1.0mph /  1.6km/h 44% 0.00in /  0mm 0.0 W/m2
04:14 57.7 °F /  14.3 °C 36.0 °F /  2.2 °C 29.69in /  1005.3hPa Calm   3.0mph /  4.8km/h 44% 0.00in /  0mm 0.0 W/m2
04:19 57.7 °F /  14.3 °C 36.5 °F /  2.5 °C 29.69in /  1005.3hPa ESE 2.0mph /  3.2km/h 2.0mph /  3.2km/h 45% 0.00in /  0mm 0.0 W/m2
04:24 57.6 °F /  14.2 °C 36.3 °F /  2.4 °C 29.69in /  1005.3hPa Calm   1.0mph /  1.6km/h 45% 0.00in /  0mm 0.0 W/m2
04:29 57.6 °F /  14.2 °C 36.3 °F /  2.4 °C 29.69in /  1005.3hPa Calm   4.0mph /  6.4km/h 45% 0.00in /  0mm 0.0 W/m2
04:34 57.6 °F /  14.2 °C 36.3 °F /  2.4 °C 29.69in /  1005.3hPa Calm   2.0mph /  3.2km/h 45% 0.00in /  0mm 0.0 W/m2
04:40 57.4 °F /  14.1 °C 36.1 °F /  2.3 °C 29.69in /  1005.3hPa Calm   2.0mph /  3.2km/h 45% 0.00in /  0mm 0.0 W/m2
04:45 57.4 °F /  14.1 °C 35.6 °F /  2 °C 29.69in /  1005.3hPa Calm   3.0mph /  4.8km/h 44% 0.00in /  0mm 0.0 W/m2
04:50 57.4 °F /  14.1 °C 35.6 °F /  2 °C 29.69in /  1005.3hPa Calm   1.0mph /  1.6km/h 44% 0.00in /  0mm 0.0 W/m2
04:55 57.4 °F /  14.1 °C 35.6 °F /  2 °C 29.69in /  1005.3hPa Calm   2.0mph /  3.2km/h 44% 0.00in /  0mm 0.0 W/m2
05:00 57.4 °F /  14.1 °C 35.6 °F /  2 °C 29.69in /  1005.3hPa Calm   5.0mph /  8km/h 44% 0.00in /  0mm 0.0 W/m2
05:05 57.4 °F /  14.1 °C 35.1 °F /  1.7 °C 29.70in /  1005.6hPa Calm   2.0mph /  3.2km/h 43% 0.00in /  0mm 0.0 W/m2
05:10 57.4 °F /  14.1 °C 35.1 °F /  1.7 °C 29.69in /  1005.3hPa Calm   3.0mph /  4.8km/h 43% 0.00in /  0mm 0.0 W/m2
05:15 57.4 °F /  14.1 °C 35.1 °F /  1.7 °C 29.69in /  1005.3hPa Calm   1.0mph /  1.6km/h 43% 0.00in /  0mm 0.0 W/m2
05:20 57.4 °F /  14.1 °C 35.1 °F /  1.7 °C 29.70in /  1005.6hPa Calm   2.0mph /  3.2km/h 43% 0.00in /  0mm 0.0 W/m2
05:25 57.2 °F /  14 °C 34.9 °F /  1.6 °C 29.70in /  1005.6hPa Calm   3.0mph /  4.8km/h 43% 0.00in /  0mm 0.0 W/m2
05:30 57.0 °F /  13.9 °C 34.7 °F /  1.5 °C 29.70in /  1005.6hPa Calm     43% 0.00in /  0mm 0.0 W/m2
05:36 57.0 °F /  13.9 °C 35.2 °F /  1.8 °C 29.70in /  1005.6hPa Calm   2.0mph /  3.2km/h 44% 0.00in /  0mm 0.0 W/m2
05:41 56.8 °F /  13.8 °C 36.3 °F /  2.4 °C 29.70in /  1005.6hPa Calm     46% 0.00in /  0mm 0.0 W/m2
05:46 56.7 °F /  13.7 °C 36.7 °F /  2.6 °C 29.70in /  1005.6hPa Calm   1.0mph /  1.6km/h 47% 0.00in /  0mm 0.0 W/m2
05:51 56.5 °F /  13.6 °C 36.0 °F /  2.2 °C 29.70in /  1005.6hPa Calm   1.0mph /  1.6km/h 46% 0.00in /  0mm 0.0 W/m2
05:56 55.9 °F /  13.3 °C 35.4 °F /  1.9 °C 29.70in /  1005.6hPa Calm   1.0mph /  1.6km/h 46% 0.00in /  0mm 0.0 W/m2
06:01 55.8 °F /  13.2 °C 34.7 °F /  1.5 °C 29.70in /  1005.6hPa Calm   2.0mph /  3.2km/h 45% 0.00in /  0mm 0.0 W/m2
06:07 55.8 °F /  13.2 °C 34.2 °F /  1.2 °C 29.71in /  1006hPa Calm   1.0mph /  1.6km/h 44% 0.00in /  0mm 0.0 W/m2
06:12 55.8 °F /  13.2 °C 35.8 °F /  2.1 °C 29.71in /  1006hPa Calm   1.0mph /  1.6km/h 47% 0.00in /  0mm 0.0 W/m2
06:17 55.8 °F /  13.2 °C 35.2 °F /  1.8 °C 29.71in /  1006hPa Calm   1.0mph /  1.6km/h 46% 0.00in /  0mm 0.0 W/m2
06:22 55.6 °F /  13.1 °C 34.5 °F /  1.4 °C 29.71in /  1006hPa Calm   1.0mph /  1.6km/h 45% 0.00in /  0mm 0.0 W/m2
06:27 55.6 °F /  13.1 °C 34.0 °F /  1.1 °C 29.71in /  1006hPa Calm   2.0mph /  3.2km/h 44% 0.00in /  0mm 0.0 W/m2
06:32 55.8 °F /  13.2 °C 34.7 °F /  1.5 °C 29.71in /  1006hPa East 0.9mph /  1.4km/h 2.0mph /  3.2km/h 45% 0.00in /  0mm 0.0 W/m2
06:37 55.8 °F /  13.2 °C 35.8 °F /  2.1 °C 29.71in /  1006hPa Calm   2.0mph /  3.2km/h 47% 0.00in /  0mm 0.0 W/m2
06:42 55.6 °F /  13.1 °C 35.1 °F /  1.7 °C 29.71in /  1006hPa East 0.9mph /  1.4km/h 2.0mph /  3.2km/h 46% 0.00in /  0mm 0.0 W/m2
06:48 55.6 °F /  13.1 °C 37.2 °F /  2.9 °C 29.72in /  1006.3hPa Calm     50% 0.00in /  0mm 5.0 W/m2
06:53 55.2 °F /  12.9 °C 36.9 °F /  2.7 °C 29.72in /  1006.3hPa Calm   1.0mph /  1.6km/h 50% 0.00in /  0mm 7.0 W/m2
06:58 55.0 °F /  12.8 °C 36.7 °F /  2.6 °C 29.72in /  1006.3hPa Calm   1.0mph /  1.6km/h 50% 0.00in /  0mm 9.0 W/m2
07:03 54.9 °F /  12.7 °C 37.0 °F /  2.8 °C 29.72in /  1006.3hPa Calm   1.0mph /  1.6km/h 51% 0.00in /  0mm 11.0 W/m2
07:08 54.7 °F /  12.6 °C 36.3 °F /  2.4 °C 29.72in /  1006.3hPa Calm   1.0mph /  1.6km/h 50% 0.00in /  0mm 12.0 W/m2
07:13 54.7 °F /  12.6 °C 37.4 °F /  3 °C 29.73in /  1006.7hPa Calm     52% 0.00in /  0mm 14.0 W/m2
07:18 54.7 °F /  12.6 °C 37.4 °F /  3 °C 29.73in /  1006.7hPa Calm     52% 0.00in /  0mm 14.0 W/m2
07:23 54.7 °F /  12.6 °C 37.4 °F /  3 °C 29.73in /  1006.7hPa Calm   1.0mph /  1.6km/h 52% 0.00in /  0mm 16.0 W/m2
07:28 54.7 °F /  12.6 °C 37.4 °F /  3 °C 29.73in /  1006.7hPa Calm   1.0mph /  1.6km/h 52% 0.00in /  0mm 18.0 W/m2
07:33 54.9 °F /  12.7 °C 38.1 °F /  3.4 °C 29.73in /  1006.7hPa Calm     53% 0.00in /  0mm 19.0 W/m2
07:38 55.2 °F /  12.9 °C 37.9 °F /  3.3 °C 29.73in /  1006.7hPa Calm     52% 0.00in /  0mm 19.0 W/m2
07:43 55.6 °F /  13.1 °C 39.2 °F /  4 °C 29.74in /  1007hPa Calm   1.0mph /  1.6km/h 54% 0.00in /  0mm 21.0 W/m2
07:49 55.9 °F /  13.3 °C 39.9 °F /  4.4 °C 29.74in /  1007hPa Calm     55% 0.00in /  0mm 23.0 W/m2
07:54 56.5 °F /  13.6 °C 40.5 °F /  4.7 °C 29.74in /  1007hPa Calm     55% 0.00in /  0mm 23.0 W/m2
07:59 56.8 °F /  13.8 °C 39.9 °F /  4.4 °C 29.74in /  1007hPa Calm     53% 0.00in /  0mm 33.0 W/m2
08:04 57.6 °F /  14.2 °C 39.6 °F /  4.2 °C 29.74in /  1007hPa Calm   1.0mph /  1.6km/h 51% 0.00in /  0mm 30.0 W/m2
08:09 58.5 °F /  14.7 °C 38.3 °F /  3.5 °C 29.74in /  1007hPa Calm     47% 0.00in /  0mm 44.0 W/m2
08:14 59.4 °F /  15.2 °C 37.9 °F /  3.3 °C 29.74in /  1007hPa Calm   1.0mph /  1.6km/h 45% 0.00in /  0mm 33.0 W/m2
08:19 60.3 °F /  15.7 °C 37.8 °F /  3.2 °C 29.74in /  1007hPa Calm   1.0mph /  1.6km/h 43% 0.00in /  0mm 30.0 W/m2
08:24 61.2 °F /  16.2 °C 36.0 °F /  2.2 °C 29.75in /  1007.3hPa Calm   1.0mph /  1.6km/h 39% 0.00in /  0mm 28.0 W/m2
08:29 62.1 °F /  16.7 °C 36.1 °F /  2.3 °C 29.75in /  1007.3hPa Calm   1.0mph /  1.6km/h 38% 0.00in /  0mm 30.0 W/m2
08:34 62.8 °F /  17.1 °C 35.4 °F /  1.9 °C 29.75in /  1007.3hPa Calm     36% 0.00in /  0mm 30.0 W/m2
08:40 63.3 °F /  17.4 °C 32.9 °F /  0.5 °C 29.75in /  1007.3hPa Calm   1.0mph /  1.6km/h 32% 0.00in /  0mm 32.0 W/m2
08:45 64.0 °F /  17.8 °C 33.6 °F /  0.9 °C 29.74in /  1007hPa Calm   1.0mph /  1.6km/h 32% 0.00in /  0mm 37.0 W/m2
08:50 64.8 °F /  18.2 °C 33.4 °F /  0.8 °C 29.74in /  1007hPa North 0.9mph /  1.4km/h 2.0mph /  3.2km/h 31% 0.00in /  0mm 56.0 W/m2
08:55 65.5 °F /  18.6 °C 33.3 °F /  0.7 °C 29.74in /  1007hPa Calm   1.0mph /  1.6km/h 30% 0.00in /  0mm 522.0 W/m2
09:00 66.0 °F /  18.9 °C 32.9 °F /  0.5 °C 29.74in /  1007hPa Calm   2.0mph /  3.2km/h 29% 0.00in /  0mm 540.0 W/m2
09:05 66.7 °F /  19.3 °C 33.4 °F /  0.8 °C 29.74in /  1007hPa North 0.9mph /  1.4km/h 1.0mph /  1.6km/h 29% 0.00in /  0mm 559.0 W/m2
09:11 68.5 °F /  20.3 °C 32.4 °F /  0.2 °C 29.74in /  1007hPa Calm   1.0mph /  1.6km/h 26% 0.00in /  0mm 580.0 W/m2
09:17 69.4 °F /  20.8 °C 33.1 °F /  0.6 °C 29.74in /  1007hPa Calm   1.0mph /  1.6km/h 26% 0.00in /  0mm 599.0 W/m2
09:22 70.2 °F /  21.2 °C 33.6 °F /  0.9 °C 29.74in /  1007hPa Calm   1.0mph /  1.6km/h 26% 0.00in /  0mm 617.0 W/m2
09:27 70.7 °F /  21.5 °C 32.2 °F /  0.1 °C 29.74in /  1007hPa Calm   3.0mph /  4.8km/h 24% 0.00in /  0mm 642.0 W/m2
09:32 71.1 °F /  21.7 °C 33.4 °F /  0.8 °C 29.74in /  1007hPa Calm   2.0mph /  3.2km/h 25% 0.00in /  0mm 661.0 W/m2
09:37 71.6 °F /  22 °C 34.0 °F /  1.1 °C 29.74in /  1007hPa Calm   3.0mph /  4.8km/h 25% 0.00in /  0mm 673.0 W/m2
09:42 72.7 °F /  22.6 °C 33.8 °F /  1 °C 29.75in /  1007.3hPa North 0.9mph /  1.4km/h 1.0mph /  1.6km/h 24% 0.00in /  0mm 694.0 W/m2
09:47 73.9 °F /  23.3 °C 36.0 °F /  2.2 °C 29.75in /  1007.3hPa West 0.9mph /  1.4km/h 3.0mph /  4.8km/h 25% 0.00in /  0mm 712.0 W/m2
09:52 74.7 °F /  23.7 °C 35.4 °F /  1.9 °C 29.74in /  1007hPa West 2.9mph /  4.7km/h 5.0mph /  8km/h 24% 0.00in /  0mm 726.0 W/m2
09:57 74.7 °F /  23.7 °C 34.3 °F /  1.3 °C 29.74in /  1007hPa WNW 0.9mph /  1.4km/h 4.0mph /  6.4km/h 23% 0.00in /  0mm 745.0 W/m2
10:02 74.8 °F /  23.8 °C 34.5 °F /  1.4 °C 29.74in /  1007hPa Calm   2.0mph /  3.2km/h 23% 0.00in /  0mm 759.0 W/m2
10:07 75.4 °F /  24.1 °C 35.1 °F /  1.7 °C 29.74in /  1007hPa NW 0.9mph /  1.4km/h 5.0mph /  8km/h 23% 0.00in /  0mm 775.0 W/m2
10:13 75.9 °F /  24.4 °C 36.5 °F /  2.5 °C 29.74in /  1007hPa WSW 2.0mph /  3.2km/h 5.0mph /  8km/h 24% 0.00in /  0mm 789.0 W/m2
10:18 76.5 °F /  24.7 °C 34.9 °F /  1.6 °C 29.74in /  1007hPa WSW 0.9mph /  1.4km/h 2.0mph /  3.2km/h 22% 0.00in /  0mm 809.0 W/m2
10:23 76.8 °F /  24.9 °C 34.0 °F /  1.1 °C 29.74in /  1007hPa WSW 0.9mph /  1.4km/h 3.0mph /  4.8km/h 21% 0.00in /  0mm 819.0 W/m2
10:28 77.4 °F /  25.2 °C 33.1 °F /  0.6 °C 29.74in /  1007hPa North 2.0mph /  3.2km/h 2.0mph /  3.2km/h 20% 0.00in /  0mm 838.0 W/m2
10:33 78.3 °F /  25.7 °C 34.0 °F /  1.1 °C 29.74in /  1007hPa NNW 0.9mph /  1.4km/h 2.0mph /  3.2km/h 20% 0.00in /  0mm 851.0 W/m2
10:38 78.6 °F /  25.9 °C 34.2 °F /  1.2 °C 29.74in /  1007hPa SW 2.0mph /  3.2km/h 4.0mph /  6.4km/h 20% 0.00in /  0mm 863.0 W/m2
10:43 79.0 °F /  26.1 °C 34.5 °F /  1.4 °C 29.74in /  1007hPa Calm   5.0mph /  8km/h 20% 0.00in /  0mm 879.0 W/m2
10:48 79.2 °F /  26.2 °C 34.7 °F /  1.5 °C 29.73in /  1006.7hPa SSW 2.0mph /  3.2km/h 7.0mph /  11.3km/h 20% 0.00in /  0mm 891.0 W/m2
10:53 79.5 °F /  26.4 °C 33.6 °F /  0.9 °C 29.73in /  1006.7hPa Calm   7.0mph /  11.3km/h 19% 0.00in /  0mm 905.0 W/m2
10:58 79.9 °F /  26.6 °C 34.0 °F /  1.1 °C 29.73in /  1006.7hPa West 4.9mph /  7.9km/h 10.0mph /  16.1km/h 19% 0.00in /  0mm 921.0 W/m2
11:04 79.9 °F /  26.6 °C 34.0 °F /  1.1 °C 29.73in /  1006.7hPa WSW 2.9mph /  4.7km/h 8.0mph /  12.9km/h 19% 0.00in /  0mm 932.0 W/m2
11:09 79.5 °F /  26.4 °C 33.6 °F /  0.9 °C 29.73in /  1006.7hPa West 2.0mph /  3.2km/h 4.0mph /  6.4km/h 19% 0.00in /  0mm 933.0 W/m2
11:15 79.9 °F /  26.6 °C 34.0 °F /  1.1 °C 29.73in /  1006.7hPa West 0.9mph /  1.4km/h 6.0mph /  9.7km/h 19% 0.00in /  0mm 946.0 W/m2
11:20 80.1 °F /  26.7 °C 34.2 °F /  1.2 °C 29.73in /  1006.7hPa SW 0.9mph /  1.4km/h 3.0mph /  4.8km/h 19% 0.00in /  0mm 960.0 W/m2
11:25 80.8 °F /  27.1 °C 34.7 °F /  1.5 °C 29.73in /  1006.7hPa NNW 0.9mph /  1.4km/h 3.0mph /  4.8km/h 19% 0.00in /  0mm 967.0 W/m2
11:30 81.3 °F /  27.4 °C 35.1 °F /  1.7 °C 29.73in /  1006.7hPa West 2.9mph /  4.7km/h 6.0mph /  9.7km/h 19% 0.00in /  0mm 976.0 W/m2
11:35 82.0 °F /  27.8 °C 35.8 °F /  2.1 °C 29.73in /  1006.7hPa Calm   6.0mph /  9.7km/h 19% 0.00in /  0mm 984.0 W/m2
11:40 82.2 °F /  27.9 °C 34.5 °F /  1.4 °C 29.72in /  1006.3hPa SW 2.9mph /  4.7km/h 8.0mph /  12.9km/h 18% 0.00in /  0mm 993.0 W/m2
11:45 82.6 °F /  28.1 °C 34.7 °F /  1.5 °C 29.72in /  1006.3hPa NNW 2.0mph /  3.2km/h 6.0mph /  9.7km/h 18% 0.00in /  0mm 1002.0 W/m2
11:50 82.9 °F /  28.3 °C 33.6 °F /  0.9 °C 29.72in /  1006.3hPa WSW 0.9mph /  1.4km/h 10.0mph /  16.1km/h 17% 0.00in /  0mm 1007.0 W/m2
11:55 83.1 °F /  28.4 °C 33.8 °F /  1 °C 29.72in /  1006.3hPa West 0.9mph /  1.4km/h 5.0mph /  8km/h 17% 0.00in /  0mm 1018.0 W/m2
12:01 83.5 °F /  28.6 °C 34.2 °F /  1.2 °C 29.71in /  1006hPa WSW 6.9mph /  11.1km/h 11.0mph /  17.7km/h 17% 0.00in /  0mm 1027.0 W/m2
12:06 83.7 °F /  28.7 °C 32.7 °F /  0.4 °C 29.71in /  1006hPa NNW 0.9mph /  1.4km/h 7.0mph /  11.3km/h 16% 0.00in /  0mm 1030.0 W/m2
12:11 84.0 °F /  28.9 °C 33.1 °F /  0.6 °C 29.71in /  1006hPa WSW 0.9mph /  1.4km/h 4.0mph /  6.4km/h 16% 0.00in /  0mm 1034.0 W/m2
12:16 84.4 °F /  29.1 °C 31.6 °F /  -0.2 °C 29.71in /  1006hPa WSW 4.0mph /  6.4km/h 9.0mph /  14.5km/h 15% 0.00in /  0mm 1039.0 W/m2
12:21 84.0 °F /  28.9 °C 31.5 °F /  -0.3 °C 29.71in /  1006hPa West 6.9mph /  11.1km/h 11.0mph /  17.7km/h 15% 0.00in /  0mm 1042.0 W/m2
12:26 84.0 °F /  28.9 °C 33.1 °F /  0.6 °C 29.71in /  1006hPa NNW 6.0mph /  9.7km/h 10.0mph /  16.1km/h 16% 0.00in /  0mm 1046.0 W/m2
12:31 84.9 °F /  29.4 °C 32.2 °F /  0.1 °C 29.71in /  1006hPa SW 4.0mph /  6.4km/h 11.0mph /  17.7km/h 15% 0.00in /  0mm 1049.0 W/m2
12:36 85.6 °F /  29.8 °C 30.9 °F /  -0.6 °C 29.71in /  1006hPa West 4.9mph /  7.9km/h 11.0mph /  17.7km/h 14% 0.00in /  0mm 1051.0 W/m2
12:41 85.8 °F /  29.9 °C 32.9 °F /  0.5 °C 29.71in /  1006hPa SSW 4.9mph /  7.9km/h 6.0mph /  9.7km/h 15% 0.00in /  0mm 1058.0 W/m2
12:47 85.8 °F /  29.9 °C 32.9 °F /  0.5 °C 29.70in /  1005.6hPa NW 4.9mph /  7.9km/h 10.0mph /  16.1km/h 15% 0.00in /  0mm 1056.0 W/m2
12:52 86.4 °F /  30.2 °C 31.5 °F /  -0.3 °C 29.70in /  1005.6hPa North 4.0mph /  6.4km/h 5.0mph /  8km/h 14% 0.00in /  0mm 1060.0 W/m2
12:57 86.7 °F /  30.4 °C 33.6 °F /  0.9 °C 29.70in /  1005.6hPa WSW 2.0mph /  3.2km/h 10.0mph /  16.1km/h 15% 0.00in /  0mm 1060.0 W/m2
13:02 86.7 °F /  30.4 °C 31.8 °F /  -0.1 °C 29.70in /  1005.6hPa West 4.9mph /  7.9km/h 9.0mph /  14.5km/h 14% 0.00in /  0mm 1062.0 W/m2
13:07 86.7 °F /  30.4 °C 31.8 °F /  -0.1 °C 29.70in /  1005.6hPa SSW 6.0mph /  9.7km/h 6.0mph /  9.7km/h 14% 0.00in /  0mm 1060.0 W/m2
13:12 86.7 °F /  30.4 °C 33.6 °F /  0.9 °C 29.70in /  1005.6hPa WSW 2.9mph /  4.7km/h 9.0mph /  14.5km/h 15% 0.00in /  0mm 1058.0 W/m2
13:17 87.3 °F /  30.7 °C 32.2 °F /  0.1 °C 29.69in /  1005.3hPa NNE 2.0mph /  3.2km/h 7.0mph /  11.3km/h 14% 0.00in /  0mm 1056.0 W/m2
13:22 87.6 °F /  30.9 °C 32.5 °F /  0.3 °C 29.68in /  1005hPa Calm   6.0mph /  9.7km/h 14% 0.00in /  0mm 1055.0 W/m2
13:27 88.2 °F /  31.2 °C 32.9 °F /  0.5 °C 29.69in /  1005.3hPa NW 8.9mph /  14.3km/h 11.0mph /  17.7km/h 14% 0.00in /  0mm 1048.0 W/m2
13:33 88.2 °F /  31.2 °C 32.9 °F /  0.5 °C 29.68in /  1005hPa West 2.0mph /  3.2km/h 5.0mph /  8km/h 14% 0.00in /  0mm 1048.0 W/m2
13:38 88.2 °F /  31.2 °C 32.9 °F /  0.5 °C 29.68in /  1005hPa West 2.0mph /  3.2km/h 7.0mph /  11.3km/h 14% 0.00in /  0mm 1046.0 W/m2
13:43 88.0 °F /  31.1 °C 32.9 °F /  0.5 °C 29.68in /  1005hPa SSW 2.9mph /  4.7km/h 8.0mph /  12.9km/h 14% 0.00in /  0mm 1037.0 W/m2
13:48 88.2 °F /  31.2 °C 32.9 °F /  0.5 °C 29.68in /  1005hPa WNW 2.0mph /  3.2km/h 10.0mph /  16.1km/h 14% 0.00in /  0mm 1034.0 W/m2
13:54 88.3 °F /  31.3 °C 33.1 °F /  0.6 °C 29.67in /  1004.6hPa WSW 4.0mph /  6.4km/h 4.0mph /  6.4km/h 14% 0.00in /  0mm 1030.0 W/m2
13:59 87.8 °F /  31 °C 30.9 °F /  -0.6 °C 29.67in /  1004.6hPa West 8.1mph /  13km/h 13.0mph /  20.9km/h 13% 0.00in /  0mm 1021.0 W/m2
14:04 87.3 °F /  30.7 °C 32.2 °F /  0.1 °C 29.67in /  1004.6hPa West 8.1mph /  13km/h 13.0mph /  20.9km/h 14% 0.00in /  0mm 1014.0 W/m2
14:09 87.4 °F /  30.8 °C 30.6 °F /  -0.8 °C 29.67in /  1004.6hPa North 2.9mph /  4.7km/h 4.0mph /  6.4km/h 13% 0.00in /  0mm 1009.0 W/m2
14:14 88.0 °F /  31.1 °C 32.9 °F /  0.5 °C 29.67in /  1004.6hPa West 11.0mph /  17.7km/h 15.0mph /  24.1km/h 14% 0.00in /  0mm 1000.0 W/m2
14:19 88.0 °F /  31.1 °C 32.9 °F /  0.5 °C 29.67in /  1004.6hPa NNW 4.9mph /  7.9km/h 9.0mph /  14.5km/h 14% 0.00in /  0mm 993.0 W/m2
14:25 88.3 °F /  31.3 °C 31.3 °F /  -0.4 °C 29.67in /  1004.6hPa SSW 2.0mph /  3.2km/h 3.0mph /  4.8km/h 13% 0.00in /  0mm 983.0 W/m2
14:30 88.3 °F /  31.3 °C 33.1 °F /  0.6 °C 29.67in /  1004.6hPa West 0.9mph /  1.4km/h 8.0mph /  12.9km/h 14% 0.00in /  0mm 970.0 W/m2
14:35 88.3 °F /  31.3 °C 33.1 °F /  0.6 °C 29.66in /  1004.3hPa West 2.9mph /  4.7km/h 10.0mph /  16.1km/h 14% 0.00in /  0mm 960.0 W/m2
14:40 88.3 °F /  31.3 °C 33.1 °F /  0.6 °C 29.67in /  1004.6hPa WNW 2.0mph /  3.2km/h 9.0mph /  14.5km/h 14% 0.00in /  0mm 954.0 W/m2
14:45 88.5 °F /  31.4 °C 33.3 °F /  0.7 °C 29.66in /  1004.3hPa West 0.9mph /  1.4km/h 3.0mph /  4.8km/h 14% 0.00in /  0mm 942.0 W/m2
14:50 89.1 °F /  31.7 °C 31.8 °F /  -0.1 °C 29.66in /  1004.3hPa WNW 0.9mph /  1.4km/h 6.0mph /  9.7km/h 13% 0.00in /  0mm 939.0 W/m2
14:55 89.2 °F /  31.8 °C 32.0 °F /  0 °C 29.66in /  1004.3hPa West 6.9mph /  11.1km/h 7.0mph /  11.3km/h 13% 0.00in /  0mm 926.0 W/m2
15:00 89.2 °F /  31.8 °C 32.0 °F /  0 °C 29.66in /  1004.3hPa Calm   10.0mph /  16.1km/h 13% 0.00in /  0mm 914.0 W/m2
15:06 89.4 °F /  31.9 °C 34.0 °F /  1.1 °C 29.66in /  1004.3hPa WSW 4.0mph /  6.4km/h 6.0mph /  9.7km/h 14% 0.00in /  0mm 900.0 W/m2
15:11 89.4 °F /  31.9 °C 34.0 °F /  1.1 °C 29.65in /  1003.9hPa SW 2.9mph /  4.7km/h 8.0mph /  12.9km/h 14% 0.00in /  0mm 891.0 W/m2
15:16 89.4 °F /  31.9 °C 34.0 °F /  1.1 °C 29.65in /  1003.9hPa West 4.9mph /  7.9km/h 5.0mph /  8km/h 14% 0.00in /  0mm 874.0 W/m2
15:21 89.8 °F /  32.1 °C 32.4 °F /  0.2 °C 29.65in /  1003.9hPa NW 0.9mph /  1.4km/h 5.0mph /  8km/h 13% 0.00in /  0mm 865.0 W/m2
15:26 90.0 °F /  32.2 °C 34.3 °F /  1.3 °C 29.65in /  1003.9hPa West 8.1mph /  13km/h 8.1mph /  13km/h 14% 0.00in /  0mm 851.0 W/m2
15:31 90.5 °F /  32.5 °C 32.9 °F /  0.5 °C 29.65in /  1003.9hPa North 2.0mph /  3.2km/h 5.0mph /  8km/h 13% 0.00in /  0mm 837.0 W/m2
15:36 90.1 °F /  32.3 °C 32.7 °F /  0.4 °C 29.65in /  1003.9hPa WSW 2.0mph /  3.2km/h 9.0mph /  14.5km/h 13% 0.00in /  0mm 824.0 W/m2
15:41 89.8 °F /  32.1 °C 32.4 °F /  0.2 °C 29.64in /  1003.6hPa WNW 6.0mph /  9.7km/h 7.0mph /  11.3km/h 13% 0.00in /  0mm 805.0 W/m2
15:46 89.2 °F /  31.8 °C 32.0 °F /  0 °C 29.65in /  1003.9hPa WNW 0.9mph /  1.4km/h 8.0mph /  12.9km/h 13% 0.00in /  0mm 793.0 W/m2
15:51 89.1 °F /  31.7 °C 33.6 °F /  0.9 °C 29.64in /  1003.6hPa West 2.0mph /  3.2km/h 5.0mph /  8km/h 14% 0.00in /  0mm 775.0 W/m2
15:57 89.4 °F /  31.9 °C 34.0 °F /  1.1 °C 29.64in /  1003.6hPa West 6.9mph /  11.1km/h 7.0mph /  11.3km/h 14% 0.00in /  0mm 761.0 W/m2
16:02 89.8 °F /  32.1 °C 34.2 °F /  1.2 °C 29.64in /  1003.6hPa WSW 6.9mph /  11.1km/h 14.0mph /  22.5km/h 14% 0.00in /  0mm 749.0 W/m2
16:07 89.6 °F /  32 °C 34.2 °F /  1.2 °C 29.64in /  1003.6hPa NNW 2.0mph /  3.2km/h 9.0mph /  14.5km/h 14% 0.00in /  0mm 729.0 W/m2
16:12 89.2 °F /  31.8 °C 33.8 °F /  1 °C 29.64in /  1003.6hPa WSW 2.0mph /  3.2km/h 12.0mph /  19.3km/h 14% 0.00in /  0mm 708.0 W/m2
16:17 88.5 °F /  31.4 °C 33.3 °F /  0.7 °C 29.64in /  1003.6hPa NNE 4.9mph /  7.9km/h 13.0mph /  20.9km/h 14% 0.00in /  0mm 696.0 W/m2
16:22 89.1 °F /  31.7 °C 33.6 °F /  0.9 °C 29.64in /  1003.6hPa WSW 2.9mph /  4.7km/h 3.0mph /  4.8km/h 14% 0.00in /  0mm 682.0 W/m2
16:27 89.4 °F /  31.9 °C 34.0 °F /  1.1 °C 29.64in /  1003.6hPa NNW 2.9mph /  4.7km/h 9.0mph /  14.5km/h 14% 0.00in /  0mm 666.0 W/m2
16:33 89.8 °F /  32.1 °C 34.2 °F /  1.2 °C 29.64in /  1003.6hPa Calm   7.0mph /  11.3km/h 14% 0.00in /  0mm 649.0 W/m2
16:38 90.1 °F /  32.3 °C 34.5 °F /  1.4 °C 29.64in /  1003.6hPa West 2.9mph /  4.7km/h 8.0mph /  12.9km/h 14% 0.00in /  0mm 626.0 W/m2
16:43 89.8 °F /  32.1 °C 34.2 °F /  1.2 °C 29.64in /  1003.6hPa West 2.9mph /  4.7km/h 4.0mph /  6.4km/h 14% 0.00in /  0mm 608.0 W/m2
16:48 90.0 °F /  32.2 °C 34.3 °F /  1.3 °C 29.64in /  1003.6hPa Calm   4.0mph /  6.4km/h 14% 0.00in /  0mm 589.0 W/m2
16:53 90.3 °F /  32.4 °C 34.7 °F /  1.5 °C 29.64in /  1003.6hPa WNW 2.9mph /  4.7km/h 10.0mph /  16.1km/h 14% 0.00in /  0mm 573.0 W/m2
16:58 90.1 °F /  32.3 °C 34.5 °F /  1.4 °C 29.64in /  1003.6hPa WNW 6.9mph /  11.1km/h 8.0mph /  12.9km/h 14% 0.00in /  0mm 552.0 W/m2
17:03 89.6 °F /  32 °C 34.2 °F /  1.2 °C 29.63in /  1003.3hPa WSW 2.0mph /  3.2km/h 9.0mph /  14.5km/h 14% 0.00in /  0mm 533.0 W/m2
17:08 89.2 °F /  31.8 °C 33.8 °F /  1 °C 29.63in /  1003.3hPa West 0.9mph /  1.4km/h 10.0mph /  16.1km/h 14% 0.00in /  0mm 513.0 W/m2
17:13 89.1 °F /  31.7 °C 33.6 °F /  0.9 °C 29.63in /  1003.3hPa WNW 2.0mph /  3.2km/h 7.0mph /  11.3km/h 14% 0.00in /  0mm 494.0 W/m2
17:18 88.9 °F /  31.6 °C 33.6 °F /  0.9 °C 29.63in /  1003.3hPa NNW 4.0mph /  6.4km/h 7.0mph /  11.3km/h 14% 0.00in /  0mm 473.0 W/m2
17:24 88.9 °F /  31.6 °C 33.6 °F /  0.9 °C 29.63in /  1003.3hPa West 6.0mph /  9.7km/h 12.0mph /  19.3km/h 14% 0.00in /  0mm 455.0 W/m2
17:29 88.5 °F /  31.4 °C 33.3 °F /  0.7 °C 29.63in /  1003.3hPa WNW 0.9mph /  1.4km/h 3.0mph /  4.8km/h 14% 0.00in /  0mm 434.0 W/m2
17:34 88.9 °F /  31.6 °C 33.6 °F /  0.9 °C 29.63in /  1003.3hPa Calm   5.0mph /  8km/h 14% 0.00in /  0mm 413.0 W/m2
17:39 88.9 °F /  31.6 °C 31.6 °F /  -0.2 °C 29.64in /  1003.6hPa West 2.0mph /  3.2km/h 8.0mph /  12.9km/h 13% 0.00in /  0mm 392.0 W/m2
17:44 88.5 °F /  31.4 °C 31.5 °F /  -0.3 °C 29.63in /  1003.3hPa WSW 6.9mph /  11.1km/h 8.0mph /  12.9km/h 13% 0.00in /  0mm 373.0 W/m2
17:49 88.2 °F /  31.2 °C 32.9 °F /  0.5 °C 29.63in /  1003.3hPa West 8.1mph /  13km/h 11.0mph /  17.7km/h 14% 0.00in /  0mm 352.0 W/m2
17:54 88.0 °F /  31.1 °C 32.9 °F /  0.5 °C 29.63in /  1003.3hPa West 2.9mph /  4.7km/h 3.0mph /  4.8km/h 14% 0.00in /  0mm 330.0 W/m2
17:59 88.0 °F /  31.1 °C 32.9 °F /  0.5 °C 29.64in /  1003.6hPa West 8.1mph /  13km/h 8.1mph /  13km/h 14% 0.00in /  0mm 309.0 W/m2
18:04 88.0 °F /  31.1 °C 32.9 °F /  0.5 °C 29.64in /  1003.6hPa NW 4.0mph /  6.4km/h 9.0mph /  14.5km/h 14% 0.00in /  0mm 288.0 W/m2
18:10 87.6 °F /  30.9 °C 32.5 °F /  0.3 °C 29.63in /  1003.3hPa Calm   5.0mph /  8km/h 14% 0.00in /  0mm 269.0 W/m2
18:15 87.6 °F /  30.9 °C 32.5 °F /  0.3 °C 29.64in /  1003.6hPa West 4.9mph /  7.9km/h 7.0mph /  11.3km/h 14% 0.00in /  0mm 246.0 W/m2
18:20 87.3 °F /  30.7 °C 32.2 °F /  0.1 °C 29.64in /  1003.6hPa West 2.9mph /  4.7km/h 9.0mph /  14.5km/h 14% 0.00in /  0mm 227.0 W/m2
18:25 87.3 °F /  30.7 °C 32.2 °F /  0.1 °C 29.64in /  1003.6hPa West 2.0mph /  3.2km/h 10.0mph /  16.1km/h 14% 0.00in /  0mm 207.0 W/m2
18:30 86.7 °F /  30.4 °C 30.0 °F /  -1.1 °C 29.64in /  1003.6hPa SW 2.9mph /  4.7km/h 8.0mph /  12.9km/h 13% 0.00in /  0mm 185.0 W/m2
18:35 86.4 °F /  30.2 °C 31.5 °F /  -0.3 °C 29.64in /  1003.6hPa Calm   10.0mph /  16.1km/h 14% 0.00in /  0mm 160.0 W/m2
18:40 85.8 °F /  29.9 °C 31.1 °F /  -0.5 °C 29.64in /  1003.6hPa SW 2.0mph /  3.2km/h 6.0mph /  9.7km/h 14% 0.00in /  0mm 135.0 W/m2
18:45 85.6 °F /  29.8 °C 30.9 °F /  -0.6 °C 29.65in /  1003.9hPa West 4.9mph /  7.9km/h 9.0mph /  14.5km/h 14% 0.00in /  0mm 111.0 W/m2
18:52 84.9 °F /  29.4 °C 30.4 °F /  -0.9 °C 29.65in /  1003.9hPa WNW 10.1mph /  16.3km/h 10.1mph /  16.3km/h 14% 0.00in /  0mm 84.0 W/m2
18:57 84.4 °F /  29.1 °C 30.0 °F /  -1.1 °C 29.66in /  1004.3hPa West 2.9mph /  4.7km/h 4.0mph /  6.4km/h 14% 0.00in /  0mm 63.0 W/m2
19:02 83.8 °F /  28.8 °C 29.5 °F /  -1.4 °C 29.66in /  1004.3hPa West 2.0mph /  3.2km/h 6.0mph /  9.7km/h 14% 0.00in /  0mm 46.0 W/m2
19:07 83.7 °F /  28.7 °C 31.1 °F /  -0.5 °C 29.66in /  1004.3hPa WSW 2.0mph /  3.2km/h 6.0mph /  9.7km/h 15% 0.00in /  0mm 32.0 W/m2
19:12 83.1 °F /  28.4 °C 30.7 °F /  -0.7 °C 29.66in /  1004.3hPa WSW 8.9mph /  14.3km/h 9.0mph /  14.5km/h 15% 0.00in /  0mm 19.0 W/m2
19:17 82.0 °F /  27.8 °C 28.2 °F /  -2.1 °C 29.67in /  1004.6hPa WSW 4.9mph /  7.9km/h 14.0mph /  22.5km/h 14% 0.00in /  0mm 11.0 W/m2
19:22 81.0 °F /  27.2 °C 27.3 °F /  -2.6 °C 29.67in /  1004.6hPa WSW 8.1mph /  13km/h 10.0mph /  16.1km/h 14% 0.00in /  0mm 7.0 W/m2
19:27 79.9 °F /  26.6 °C 26.4 °F /  -3.1 °C 29.67in /  1004.6hPa WSW 0.9mph /  1.4km/h 10.0mph /  16.1km/h 14% 0.00in /  0mm 0.0 W/m2
19:32 79.2 °F /  26.2 °C 27.5 °F /  -2.5 °C 29.68in /  1005hPa West 2.0mph /  3.2km/h 7.0mph /  11.3km/h 15% 0.00in /  0mm 0.0 W/m2
19:37 78.6 °F /  25.9 °C 27.1 °F /  -2.7 °C 29.68in /  1005hPa WSW 4.0mph /  6.4km/h 10.0mph /  16.1km/h 15% 0.00in /  0mm 0.0 W/m2
19:42 78.3 °F /  25.7 °C 26.8 °F /  -2.9 °C 29.68in /  1005hPa WSW 4.0mph /  6.4km/h 5.0mph /  8km/h 15% 0.00in /  0mm 0.0 W/m2
19:48 77.7 °F /  25.4 °C 26.4 °F /  -3.1 °C 29.68in /  1005hPa WSW 2.9mph /  4.7km/h 3.0mph /  4.8km/h 15% 0.00in /  0mm 0.0 W/m2
19:53 77.4 °F /  25.2 °C 26.1 °F /  -3.3 °C 29.69in /  1005.3hPa WSW 0.9mph /  1.4km/h 4.0mph /  6.4km/h 15% 0.00in /  0mm 0.0 W/m2
19:58 77.0 °F /  25 °C 25.9 °F /  -3.4 °C 29.69in /  1005.3hPa WSW 0.9mph /  1.4km/h 3.0mph /  4.8km/h 15% 0.00in /  0mm 0.0 W/m2
20:03 76.6 °F /  24.8 °C 25.5 °F /  -3.6 °C 29.70in /  1005.6hPa WSW 0.9mph /  1.4km/h 7.0mph /  11.3km/h 15% 0.00in /  0mm 0.0 W/m2
20:08 76.3 °F /  24.6 °C 25.2 °F /  -3.8 °C 29.70in /  1005.6hPa SW 2.9mph /  4.7km/h 8.0mph /  12.9km/h 15% 0.00in /  0mm 0.0 W/m2
20:13 75.9 °F /  24.4 °C 25.0 °F /  -3.9 °C 29.70in /  1005.6hPa SSW 2.0mph /  3.2km/h 6.0mph /  9.7km/h 15% 0.00in /  0mm 0.0 W/m2
20:18 75.6 °F /  24.2 °C 26.2 °F /  -3.2 °C 29.70in /  1005.6hPa SW 2.0mph /  3.2km/h 4.0mph /  6.4km/h 16% 0.00in /  0mm 0.0 W/m2
20:23 75.4 °F /  24.1 °C 26.1 °F /  -3.3 °C 29.70in /  1005.6hPa SW 2.9mph /  4.7km/h 5.0mph /  8km/h 16% 0.00in /  0mm 0.0 W/m2
20:28 75.0 °F /  23.9 °C 25.7 °F /  -3.5 °C 29.70in /  1005.6hPa WNW 2.9mph /  4.7km/h 6.0mph /  9.7km/h 16% 0.00in /  0mm 0.0 W/m2
20:33 74.7 °F /  23.7 °C 27.0 °F /  -2.8 °C 29.70in /  1005.6hPa SSW 4.0mph /  6.4km/h 7.0mph /  11.3km/h 17% 0.00in /  0mm 0.0 W/m2
20:39 74.3 °F /  23.5 °C 26.6 °F /  -3 °C 29.70in /  1005.6hPa Calm   5.0mph /  8km/h 17% 0.00in /  0mm 0.0 W/m2
20:44 73.9 °F /  23.3 °C 26.4 °F /  -3.1 °C 29.70in /  1005.6hPa WNW 4.0mph /  6.4km/h 7.0mph /  11.3km/h 17% 0.00in /  0mm 0.0 W/m2
20:49 73.6 °F /  23.1 °C 27.5 °F /  -2.5 °C 29.70in /  1005.6hPa West 2.9mph /  4.7km/h 6.0mph /  9.7km/h 18% 0.00in /  0mm 0.0 W/m2
20:54 73.2 °F /  22.9 °C 27.1 °F /  -2.7 °C 29.70in /  1005.6hPa Calm   3.0mph /  4.8km/h 18% 0.00in /  0mm 0.0 W/m2
20:59 73.0 °F /  22.8 °C 27.0 °F /  -2.8 °C 29.70in /  1005.6hPa West 0.9mph /  1.4km/h 6.0mph /  9.7km/h 18% 0.00in /  0mm 0.0 W/m2
21:04 72.9 °F /  22.7 °C 27.0 °F /  -2.8 °C 29.71in /  1006hPa West 2.9mph /  4.7km/h 7.0mph /  11.3km/h 18% 0.00in /  0mm 0.0 W/m2
21:09 72.7 °F /  22.6 °C 28.0 °F /  -2.2 °C 29.71in /  1006hPa Calm   2.0mph /  3.2km/h 19% 0.00in /  0mm 0.0 W/m2
21:14 72.3 °F /  22.4 °C 27.7 °F /  -2.4 °C 29.71in /  1006hPa Calm   2.0mph /  3.2km/h 19% 0.00in /  0mm 0.0 W/m2
21:19 72.1 °F /  22.3 °C 27.7 °F /  -2.4 °C 29.71in /  1006hPa Calm   1.0mph /  1.6km/h 19% 0.00in /  0mm 0.0 W/m2
21:25 72.0 °F /  22.2 °C 28.8 °F /  -1.8 °C 29.71in /  1006hPa Calm   3.0mph /  4.8km/h 20% 0.00in /  0mm 0.0 W/m2
21:30 71.8 °F /  22.1 °C 27.3 °F /  -2.6 °C 29.71in /  1006hPa Calm   3.0mph /  4.8km/h 19% 0.00in /  0mm 0.0 W/m2
21:35 71.4 °F /  21.9 °C 28.2 °F /  -2.1 °C 29.71in /  1006hPa Calm   1.0mph /  1.6km/h 20% 0.00in /  0mm 0.0 W/m2
21:40 71.2 °F /  21.8 °C 28.0 °F /  -2.2 °C 29.71in /  1006hPa Calm   1.0mph /  1.6km/h 20% 0.00in /  0mm 0.0 W/m2
21:45 71.1 °F /  21.7 °C 29.1 °F /  -1.6 °C 29.72in /  1006.3hPa SW 2.0mph /  3.2km/h 2.0mph /  3.2km/h 21% 0.00in /  0mm 0.0 W/m2
21:50 70.9 °F /  21.6 °C 28.9 °F /  -1.7 °C 29.72in /  1006.3hPa Calm   1.0mph /  1.6km/h 21% 0.00in /  0mm 0.0 W/m2
21:55 70.5 °F /  21.4 °C 28.8 °F /  -1.8 °C 29.71in /  1006hPa Calm   1.0mph /  1.6km/h 21% 0.00in /  0mm 0.0 W/m2
22:00 70.3 °F /  21.3 °C 29.7 °F /  -1.3 °C 29.71in /  1006hPa West 0.9mph /  1.4km/h 2.0mph /  3.2km/h 22% 0.00in /  0mm 0.0 W/m2
22:05 70.2 °F /  21.2 °C 29.5 °F /  -1.4 °C 29.72in /  1006.3hPa Calm     22% 0.00in /  0mm 0.0 W/m2
22:10 70.0 °F /  21.1 °C 30.6 °F /  -0.8 °C 29.72in /  1006.3hPa Calm   3.0mph /  4.8km/h 23% 0.00in /  0mm 0.0 W/m2
22:15 69.8 °F /  21 °C 30.4 °F /  -0.9 °C 29.72in /  1006.3hPa Calm   1.0mph /  1.6km/h 23% 0.00in /  0mm 0.0 W/m2
22:21 69.6 °F /  20.9 °C 30.2 °F /  -1 °C 29.72in /  1006.3hPa West 0.9mph /  1.4km/h 3.0mph /  4.8km/h 23% 0.00in /  0mm 0.0 W/m2
22:26 69.4 °F /  20.8 °C 31.1 °F /  -0.5 °C 29.72in /  1006.3hPa WSW 2.0mph /  3.2km/h 3.0mph /  4.8km/h 24% 0.00in /  0mm 0.0 W/m2
22:31 69.4 °F /  20.8 °C 31.1 °F /  -0.5 °C 29.72in /  1006.3hPa SW 2.0mph /  3.2km/h 6.0mph /  9.7km/h 24% 0.00in /  0mm 0.0 W/m2
22:36 69.4 °F /  20.8 °C 31.1 °F /  -0.5 °C 29.72in /  1006.3hPa Calm   5.0mph /  8km/h 24% 0.00in /  0mm 0.0 W/m2
22:41 69.4 °F /  20.8 °C 31.1 °F /  -0.5 °C 29.72in /  1006.3hPa Calm     24% 0.00in /  0mm 0.0 W/m2
22:46 69.4 °F /  20.8 °C 31.1 °F /  -0.5 °C 29.72in /  1006.3hPa Calm     24% 0.00in /  0mm 0.0 W/m2
22:51 69.3 °F /  20.7 °C 32.0 °F /  0 °C 29.72in /  1006.3hPa Calm     25% 0.00in /  0mm 0.0 W/m2
22:56 69.1 °F /  20.6 °C 31.8 °F /  -0.1 °C 29.72in /  1006.3hPa Calm     25% 0.00in /  0mm 0.0 W/m2
23:01 68.7 °F /  20.4 °C 31.5 °F /  -0.3 °C 29.72in /  1006.3hPa Calm     25% 0.00in /  0mm 0.0 W/m2
23:07 68.5 °F /  20.3 °C 31.3 °F /  -0.4 °C 29.73in /  1006.7hPa Calm     25% 0.00in /  0mm 0.0 W/m2
23:12 68.4 °F /  20.2 °C 31.1 °F /  -0.5 °C 29.73in /  1006.7hPa Calm     25% 0.00in /  0mm 0.0 W/m2
23:18 68.0 °F /  20 °C 31.8 °F /  -0.1 °C 29.73in /  1006.7hPa Calm     26% 0.00in /  0mm 0.0 W/m2
23:23 67.8 °F /  19.9 °C 32.5 °F /  0.3 °C 29.73in /  1006.7hPa Calm     27% 0.00in /  0mm 0.0 W/m2
23:28 67.6 °F /  19.8 °C 32.5 °F /  0.3 °C 29.73in /  1006.7hPa Calm     27% 0.00in /  0mm 0.0 W/m2
23:33 67.5 °F /  19.7 °C 32.4 °F /  0.2 °C 29.73in /  1006.7hPa Calm     27% 0.00in /  0mm 0.0 W/m2
23:38 67.3 °F /  19.6 °C 32.2 °F /  0.1 °C 29.73in /  1006.7hPa Calm     27% 0.00in /  0mm 0.0 W/m2
23:43 66.9 °F /  19.4 °C 31.8 °F /  -0.1 °C 29.73in /  1006.7hPa Calm     27% 0.00in /  0mm 0.0 W/m2
23:49 66.7 °F /  19.3 °C 32.5 °F /  0.3 °C 29.74in /  1007hPa Calm     28% 0.00in /  0mm 0.0 W/m2
23:54 66.6 °F /  19.2 °C 32.4 °F /  0.2 °C 29.74in /  1007hPa Calm     28% 0.00in /  0mm 0.0 W/m2
Olympia, Windhoek, Namibia
Compliments of Weather Underground - 3.25 mb